Time;durP1;ratioP1;P1;durP2;ratioP2;P2;SDS_P1;SDS_P2;PMS_P1;PMS_P2;Temp;Humidity;BMP_temperature;BMP_pressure;BME280_temperature;BME280_humidity;BME280_pressure;Samples;Min_cycle;Max_cycle;Signal;HPM_P1;HPM_P2
2023/08/17 00:02:18;;;;;;;5.45;4.82;;;22.80;99.90;;;;;;5023585;28;20545;-73
2023/08/17 00:04:44;;;;;;;5.03;4.63;;;22.80;99.90;;;;;;5033410;28;20029;-73
2023/08/17 00:07:10;;;;;;;6.00;4.95;;;22.80;99.90;;;;;;5032018;28;20026;-73
2023/08/17 00:09:35;;;;;;;5.45;4.65;;;22.80;99.90;;;;;;5034782;28;20041;-73
2023/08/17 00:12:01;;;;;;;5.60;5.10;;;22.90;99.90;;;;;;5027403;28;20127;-73
2023/08/17 00:14:27;;;;;;;4.97;4.53;;;22.90;99.90;;;;;;5028574;28;20035;-74
2023/08/17 00:16:52;;;;;;;6.60;5.13;;;22.90;99.90;;;;;;5033222;28;20029;-73
2023/08/17 00:19:18;;;;;;;5.82;5.32;;;22.90;99.90;;;;;;5034567;28;20361;-75
2023/08/17 00:21:45;;;;;;;6.60;4.70;;;22.90;99.90;;;;;;5034035;28;20029;-75
2023/08/17 00:24:11;;;;;;;5.10;4.60;;;23.00;99.90;;;;;;5033241;28;20055;-76
2023/08/17 00:26:37;;;;;;;5.15;4.65;;;23.00;99.90;;;;;;5029034;28;20103;-77
2023/08/17 00:29:03;;;;;;;5.32;4.57;;;22.90;99.90;;;;;;5024450;28;20037;-75
2023/08/17 00:31:28;;;;;;;4.95;4.45;;;22.90;99.90;;;;;;5024198;28;20459;-78
2023/08/17 00:33:54;;;;;;;6.20;4.78;;;22.80;99.90;;;;;;5020634;28;20098;-74
2023/08/17 00:36:20;;;;;;;5.07;4.40;;;22.80;99.90;;;;;;5033409;28;20061;-76
2023/08/17 00:38:46;;;;;;;5.32;4.82;;;22.70;99.90;;;;;;5021318;28;20131;-75
2023/08/17 00:41:11;;;;;;;5.80;4.47;;;22.70;99.90;;;;;;5030711;28;20784;-75
2023/08/17 00:43:37;;;;;;;5.53;5.03;;;22.70;99.90;;;;;;5028664;28;20025;-75
2023/08/17 00:46:03;;;;;;;7.95;4.97;;;22.70;99.90;;;;;;5032001;28;20025;-75
2023/08/17 00:48:29;;;;;;;6.38;5.13;;;22.70;99.90;;;;;;5033917;28;20406;-75
2023/08/17 00:50:56;;;;;;;6.32;5.68;;;22.60;99.90;;;;;;5030674;28;20033;-76
2023/08/17 00:53:24;;;;;;;8.25;5.00;;;22.60;99.90;;;;;;5007970;28;20051;-74
2023/08/17 00:55:51;;;;;;;6.22;4.82;;;22.60;99.90;;;;;;5031816;28;20498;-74
2023/08/17 00:58:16;;;;;;;6.18;4.30;;;22.70;99.90;;;;;;5027273;28;20042;-75
2023/08/17 01:00:42;;;;;;;6.78;4.60;;;22.70;99.90;;;;;;5027167;28;20087;-74
2023/08/17 01:03:08;;;;;;;5.10;4.60;;;22.70;99.90;;;;;;5027098;28;20028;-75
2023/08/17 01:05:34;;;;;;;4.93;4.32;;;22.60;99.90;;;;;;5028748;28;20029;-74
2023/08/17 01:08:00;;;;;;;6.43;4.75;;;22.70;99.90;;;;;;5027477;28;20021;-75
2023/08/17 01:10:44;;;;;;;4.82;4.40;;;22.70;99.90;;;;;;5028400;28;20040;-76
2023/08/17 01:13:17;;;;;;;5.78;4.68;;;22.70;99.90;;;;;;5027203;28;20390;-75
2023/08/17 01:15:50;;;;;;;8.75;5.20;;;22.70;99.90;;;;;;5030310;28;20378;-76
2023/08/17 01:18:31;;;;;;;5.47;4.90;;;22.70;99.90;;;;;;5028463;28;20029;-75
2023/08/17 01:20:57;;;;;;;5.82;4.88;;;22.70;99.90;;;;;;5030092;28;20037;-75
2023/08/17 01:23:22;;;;;;;5.50;5.00;;;22.70;99.90;;;;;;4994252;28;20053;-76
2023/08/17 01:25:48;;;;;;;4.95;4.50;;;22.60;99.90;;;;;;5025400;28;20934;-76
2023/08/17 01:28:14;;;;;;;8.52;4.60;;;22.70;99.90;;;;;;5033038;28;20029;-67
2023/08/17 01:31:20;;;;;;;5.38;4.80;;;22.60;99.90;;;;;;5031654;28;20030;-67
2023/08/17 01:33:59;;;;;;;4.78;4.38;;;22.60;99.90;;;;;;5023368;28;20025;-67
2023/08/17 01:36:35;;;;;;;5.78;5.28;;;22.60;99.90;;;;;;5029526;28;20021;-67
2023/08/17 01:39:03;;;;;;;5.50;5.00;;;22.60;99.90;;;;;;5032178;28;20048;-67
2023/08/17 01:41:29;;;;;;;5.85;4.97;;;22.60;99.90;;;;;;5033215;28;20037;-67
2023/08/17 01:43:56;;;;;;;6.82;4.85;;;22.60;99.90;;;;;;5014967;28;20029;-67
2023/08/17 01:46:22;;;;;;;7.25;5.60;;;22.60;99.90;;;;;;5027278;28;20806;-67
2023/08/17 01:48:48;;;;;;;6.75;5.15;;;22.50;99.90;;;;;;5032174;28;20029;-67
2023/08/17 01:51:21;;;;;;;5.72;4.85;;;22.50;99.90;;;;;;5016232;28;20072;-67
2023/08/17 01:53:47;;;;;;;5.85;4.38;;;22.50;99.90;;;;;;5026970;28;20044;-67
2023/08/17 01:56:13;;;;;;;5.53;4.47;;;22.50;99.90;;;;;;5012031;28;20025;-67
2023/08/17 01:58:39;;;;;;;5.63;5.03;;;22.40;99.90;;;;;;5015906;28;20487;-67
2023/08/17 02:01:04;;;;;;;6.90;4.68;;;22.40;99.90;;;;;;5012764;28;20041;-67
2023/08/17 02:03:30;;;;;;;5.22;4.72;;;22.50;99.90;;;;;;5010677;28;20522;-67
2023/08/17 02:05:56;;;;;;;6.15;4.30;;;22.50;99.90;;;;;;5003702;28;20041;-66
2023/08/17 02:08:22;;;;;;;5.15;4.65;;;22.50;99.90;;;;;;5007096;28;20121;-67
2023/08/17 02:10:48;;;;;;;5.68;4.55;;;22.50;99.90;;;;;;5003142;28;20021;-67
2023/08/17 02:13:16;;;;;;;4.68;4.30;;;22.50;99.90;;;;;;5007575;28;20398;-67
2023/08/17 02:15:41;;;;;;;5.85;4.97;;;22.40;99.90;;;;;;4994268;28;20040;-67
2023/08/17 02:18:07;;;;;;;5.20;4.70;;;22.40;99.90;;;;;;5014227;28;20029;-66
2023/08/17 02:20:32;;;;;;;11.65;5.45;;;22.40;99.90;;;;;;5011196;28;20478;-67
2023/08/17 02:22:58;;;;;;;8.38;5.15;;;22.30;99.90;;;;;;4991160;28;22024;-67
2023/08/17 02:25:24;;;;;;;5.53;5.03;;;22.30;99.90;;;;;;5007206;28;20228;-67
2023/08/17 02:27:49;;;;;;;5.05;4.65;;;22.30;99.90;;;;;;5007808;28;20026;-67
2023/08/17 02:30:15;;;;;;;5.32;4.82;;;22.30;99.90;;;;;;5000081;28;20096;-66
2023/08/17 02:32:41;;;;;;;5.60;5.00;;;22.30;99.90;;;;;;5010616;28;20061;-67
2023/08/17 02:35:07;;;;;;;5.97;4.68;;;22.30;99.90;;;;;;5006150;28;20028;-67
2023/08/17 02:37:33;;;;;;;8.68;4.82;;;22.30;99.90;;;;;;5012593;28;20046;-66
2023/08/17 02:39:59;;;;;;;5.80;5.30;;;22.30;99.90;;;;;;5014145;28;20038;-67
2023/08/17 02:42:24;;;;;;;6.57;5.03;;;22.20;99.90;;;;;;5014558;28;20024;-67
2023/08/17 02:44:50;;;;;;;6.03;5.15;;;22.30;99.90;;;;;;4997114;28;20560;-67
2023/08/17 02:47:16;;;;;;;5.65;5.10;;;22.30;99.90;;;;;;4996455;28;20053;-66
2023/08/17 02:49:41;;;;;;;7.63;5.05;;;22.20;99.90;;;;;;5010246;28;20029;-66
2023/08/17 02:52:07;;;;;;;5.32;4.50;;;22.20;99.90;;;;;;4995849;28;20045;-67
2023/08/17 02:54:32;;;;;;;7.63;5.10;;;22.30;99.90;;;;;;5017344;28;20036;-66
2023/08/17 02:56:59;;;;;;;6.15;4.75;;;22.20;99.90;;;;;;5014543;28;20041;-66
2023/08/17 02:59:25;;;;;;;5.35;4.78;;;22.30;99.90;;;;;;5029126;28;20055;-66
2023/08/17 03:01:50;;;;;;;5.35;4.47;;;22.30;99.90;;;;;;5028678;28;20037;-67
2023/08/17 03:04:16;;;;;;;4.93;4.53;;;22.30;99.90;;;;;;5021451;28;20044;-66
2023/08/17 03:06:42;;;;;;;7.22;4.55;;;22.30;99.90;;;;;;5027527;28;20051;-67
2023/08/17 03:09:07;;;;;;;7.45;4.57;;;22.30;99.90;;;;;;5031268;28;20766;-66
2023/08/17 03:11:33;;;;;;;5.50;4.72;;;22.30;99.90;;;;;;5021820;28;20056;-66
2023/08/17 03:14:01;;;;;;;6.00;4.80;;;22.40;99.90;;;;;;5033069;28;20036;-66
2023/08/17 03:16:27;;;;;;;6.88;4.82;;;22.40;99.90;;;;;;5033478;28;20021;-66
2023/08/17 03:18:53;;;;;;;6.10;5.20;;;22.40;99.90;;;;;;5031266;28;20446;-67
2023/08/17 03:21:19;;;;;;;5.78;4.88;;;22.30;99.90;;;;;;5020652;28;20041;-66
2023/08/17 03:23:45;;;;;;;6.32;5.07;;;22.20;99.90;;;;;;5038536;28;20083;-67
2023/08/17 03:26:11;;;;;;;5.53;4.95;;;22.20;99.90;;;;;;5004379;28;20039;-67
2023/08/17 03:28:36;;;;;;;5.05;4.38;;;22.10;99.90;;;;;;5033423;28;20366;-67
2023/08/17 03:31:03;;;;;;;8.93;5.20;;;22.10;99.90;;;;;;5031708;28;20108;-67
2023/08/17 03:33:28;;;;;;;6.90;5.20;;;22.10;99.90;;;;;;5007191;28;20094;-67
2023/08/17 03:35:54;;;;;;;6.75;5.00;;;22.00;99.90;;;;;;5019827;28;20040;-67
2023/08/17 03:38:20;;;;;;;5.38;4.88;;;22.00;99.90;;;;;;5026438;28;20037;-67
2023/08/17 03:40:47;;;;;;;6.05;5.00;;;22.00;99.90;;;;;;5027516;28;20051;-67
2023/08/17 03:43:13;;;;;;;7.57;5.50;;;22.00;99.90;;;;;;5032006;28;20013;-66
2023/08/17 03:45:40;;;;;;;5.00;4.50;;;22.00;99.90;;;;;;5029851;28;20036;-67
2023/08/17 03:48:07;;;;;;;6.53;5.82;;;22.00;99.90;;;;;;5033680;28;20025;-66
2023/08/17 03:50:32;;;;;;;5.50;4.75;;;22.00;99.90;;;;;;5023713;28;20164;-66
2023/08/17 03:52:58;;;;;;;7.47;5.05;;;21.90;99.90;;;;;;5035377;28;20041;-67
2023/08/17 03:55:23;;;;;;;7.28;5.38;;;22.00;99.90;;;;;;5023667;28;20099;-67
2023/08/17 03:57:49;;;;;;;5.88;4.93;;;21.90;99.90;;;;;;5029490;28;20057;-67
2023/08/17 04:00:15;;;;;;;6.05;4.88;;;21.90;99.90;;;;;;5024159;28;20045;-67
2023/08/17 04:02:41;;;;;;;5.18;4.65;;;21.90;99.90;;;;;;5001479;28;20028;-67
2023/08/17 04:05:07;;;;;;;5.80;4.82;;;21.90;99.90;;;;;;5022072;28;20409;-67
2023/08/17 04:07:32;;;;;;;8.85;4.88;;;21.90;99.90;;;;;;5032564;28;20135;-67
2023/08/17 04:09:58;;;;;;;5.78;5.18;;;21.80;99.90;;;;;;5023211;28;20697;-67
2023/08/17 04:12:23;;;;;;;6.15;5.55;;;21.80;99.90;;;;;;5020990;28;20052;-66
2023/08/17 04:14:49;;;;;;;9.88;5.13;;;21.80;99.90;;;;;;5034741;28;20031;-65
2023/08/17 04:17:15;;;;;;;5.80;4.65;;;21.80;99.90;;;;;;5032399;28;20032;-67
2023/08/17 04:19:40;;;;;;;5.45;4.95;;;21.80;99.90;;;;;;5033017;28;20048;-66
2023/08/17 04:22:06;;;;;;;8.15;5.25;;;21.80;99.90;;;;;;5035108;28;20021;-67
2023/08/17 04:24:31;;;;;;;6.07;4.95;;;21.90;99.90;;;;;;5035875;28;20024;-67
2023/08/17 04:26:57;;;;;;;5.80;4.93;;;21.90;99.90;;;;;;5031538;28;20025;-67
2023/08/17 04:29:23;;;;;;;6.93;5.18;;;22.00;99.90;;;;;;5038036;28;20040;-67
2023/08/17 04:31:48;;;;;;;8.25;5.55;;;21.90;99.90;;;;;;5025846;28;20053;-66
2023/08/17 04:34:14;;;;;;;5.32;4.82;;;22.00;99.90;;;;;;5026640;28;20476;-66
2023/08/17 04:36:40;;;;;;;9.43;5.03;;;22.00;99.90;;;;;;5021068;28;20057;-67
2023/08/17 04:39:06;;;;;;;6.80;5.60;;;22.00;99.90;;;;;;5023489;28;20112;-67
2023/08/17 04:41:31;;;;;;;6.47;5.00;;;22.00;99.90;;;;;;5030424;28;20033;-67
2023/08/17 04:43:57;;;;;;;5.60;5.03;;;22.00;99.90;;;;;;5032034;28;20025;-67
2023/08/17 04:46:23;;;;;;;5.40;4.93;;;22.00;99.90;;;;;;5031450;28;20417;-67
2023/08/17 04:48:49;;;;;;;7.07;5.30;;;22.10;99.90;;;;;;5028575;28;20030;-66
2023/08/17 04:51:15;;;;;;;5.50;5.00;;;22.10;99.90;;;;;;5024701;28;20041;-64
2023/08/17 04:53:41;;;;;;;7.82;5.40;;;22.20;99.90;;;;;;5030464;28;20025;-67
2023/08/17 04:56:06;;;;;;;5.70;4.90;;;22.20;99.90;;;;;;5037193;28;20036;-67
2023/08/17 04:58:32;;;;;;;6.32;5.03;;;22.20;99.90;;;;;;5027868;28;20042;-67
2023/08/17 05:00:59;;;;;;;5.35;4.57;;;22.20;99.90;;;;;;5025797;28;20041;-67
2023/08/17 05:03:25;;;;;;;7.13;5.30;;;22.20;99.90;;;;;;5034412;28;20041;-67
2023/08/17 05:05:53;;;;;;;6.80;5.10;;;22.20;99.90;;;;;;5026560;28;20434;-67
2023/08/17 05:08:18;;;;;;;5.57;4.90;;;22.20;99.90;;;;;;5019829;28;20143;-67
2023/08/17 05:10:44;;;;;;;7.63;5.32;;;22.30;99.90;;;;;;5023142;28;20025;-67
2023/08/17 05:13:09;;;;;;;6.38;5.10;;;22.30;99.90;;;;;;5027335;28;20103;-67
2023/08/17 05:15:35;;;;;;;9.23;4.97;;;22.30;99.90;;;;;;5032949;28;20106;-66
2023/08/17 05:18:01;;;;;;;7.68;5.10;;;22.30;99.90;;;;;;5027500;28;20034;-66
2023/08/17 05:20:26;;;;;;;5.78;4.47;;;22.40;99.90;;;;;;5029594;28;20071;-67
2023/08/17 05:22:52;;;;;;;5.45;4.93;;;22.40;99.90;;;;;;5016935;28;20174;-67
2023/08/17 05:25:18;;;;;;;5.82;5.22;;;22.50;99.90;;;;;;5030097;28;20067;-67
2023/08/17 05:27:43;;;;;;;5.93;4.97;;;22.50;99.90;;;;;;5028819;28;20033;-75
2023/08/17 05:30:09;;;;;;;7.80;5.05;;;22.50;99.90;;;;;;5032818;28;20152;-76
2023/08/17 05:32:35;;;;;;;8.10;5.32;;;22.60;99.90;;;;;;5024253;28;20021;-76
2023/08/17 05:35:00;;;;;;;6.05;4.93;;;22.60;99.90;;;;;;5028168;28;20029;-77
2023/08/17 05:37:26;;;;;;;5.57;4.57;;;22.70;99.90;;;;;;5028261;28;20867;-75
2023/08/17 05:39:51;;;;;;;8.18;5.15;;;22.70;99.90;;;;;;5027422;28;20055;-76
2023/08/17 05:42:17;;;;;;;6.50;4.25;;;22.70;99.90;;;;;;5023105;28;20025;-77
2023/08/17 05:44:43;;;;;;;5.40;4.72;;;22.80;99.90;;;;;;5004830;28;20100;-80
2023/08/17 05:47:08;;;;;;;5.70;4.88;;;22.80;99.90;;;;;;5026334;28;20076;-76
2023/08/17 05:49:34;;;;;;;5.10;4.60;;;22.90;99.90;;;;;;5028649;28;20062;-76
2023/08/17 05:51:59;;;;;;;6.65;4.85;;;22.90;99.90;;;;;;5019149;28;23549;-75
2023/08/17 05:54:25;;;;;;;6.28;4.50;;;23.00;99.90;;;;;;5013783;28;20076;-75
2023/08/17 05:56:51;;;;;;;6.85;4.18;;;23.00;99.90;;;;;;5024980;28;20080;-77
2023/08/17 05:59:16;;;;;;;5.93;4.57;;;23.10;99.90;;;;;;5036919;28;20506;-74
2023/08/17 06:01:43;;;;;;;5.22;4.53;;;23.10;99.90;;;;;;5023290;28;20479;-75
2023/08/17 06:04:08;;;;;;;7.53;4.85;;;23.10;99.90;;;;;;5028192;28;20079;-75
2023/08/17 06:06:34;;;;;;;7.63;4.47;;;23.20;99.90;;;;;;5029841;28;20047;-75
2023/08/17 06:09:00;;;;;;;5.30;4.57;;;23.20;99.90;;;;;;5037760;28;20036;-75
2023/08/17 06:11:26;;;;;;;5.03;4.60;;;23.20;99.90;;;;;;5025351;28;20567;-78
2023/08/17 06:13:51;;;;;;;9.95;4.93;;;23.20;99.90;;;;;;5042461;28;20021;-77
2023/08/17 06:16:17;;;;;;;9.07;5.43;;;23.20;99.90;;;;;;5035587;28;20040;-75
2023/08/17 06:18:42;;;;;;;8.63;4.95;;;23.20;99.90;;;;;;5016621;28;20029;-76
2023/08/17 06:21:08;;;;;;;5.07;4.57;;;23.20;99.90;;;;;;5033780;28;20032;-74
2023/08/17 06:23:34;;;;;;;6.68;4.18;;;23.20;99.90;;;;;;5028561;28;20120;-75
2023/08/17 06:26:00;;;;;;;4.72;4.22;;;23.10;99.90;;;;;;5035078;28;20587;-78
2023/08/17 06:28:27;;;;;;;11.40;5.32;;;23.00;99.90;;;;;;5025353;28;20053;-76
2023/08/17 06:30:53;;;;;;;4.85;4.45;;;23.10;99.90;;;;;;5029306;28;20397;-74
2023/08/17 06:33:19;;;;;;;4.97;4.47;;;23.20;99.90;;;;;;5033636;28;20037;-74
2023/08/17 06:35:45;;;;;;;5.50;4.50;;;23.20;99.90;;;;;;5024439;28;20933;-76
2023/08/17 06:38:11;;;;;;;4.75;4.32;;;23.20;99.90;;;;;;5036983;28;20029;-75
2023/08/17 06:40:37;;;;;;;6.63;4.70;;;23.30;99.90;;;;;;5033377;28;20037;-75
2023/08/17 06:43:02;;;;;;;5.80;4.65;;;23.40;99.90;;;;;;5034332;28;20025;-75
2023/08/17 06:45:28;;;;;;;8.55;5.40;;;23.40;99.90;;;;;;5034738;28;20041;-77
2023/08/17 06:47:54;;;;;;;6.88;4.80;;;23.40;99.90;;;;;;5038799;28;20501;-77
2023/08/17 06:50:19;;;;;;;7.78;4.82;;;23.40;99.90;;;;;;5032645;28;20120;-77
2023/08/17 06:52:45;;;;;;;6.25;4.22;;;23.50;99.90;;;;;;5033758;28;20643;-75
2023/08/17 06:55:10;;;;;;;4.30;3.90;;;23.60;99.90;;;;;;5032977;28;22494;-76
2023/08/17 06:57:36;;;;;;;4.53;3.92;;;23.60;99.90;;;;;;5035076;28;20072;-76
2023/08/17 07:00:05;;;;;;;4.63;4.05;;;23.60;99.90;;;;;;5034856;28;20182;-77
2023/08/17 07:02:31;;;;;;;5.22;4.38;;;23.70;99.90;;;;;;5028399;28;20073;-75
2023/08/17 07:04:56;;;;;;;4.13;3.72;;;23.70;99.90;;;;;;5028270;28;20365;-75
2023/08/17 07:07:22;;;;;;;5.45;4.28;;;23.80;99.90;;;;;;5009789;28;20212;-74
2023/08/17 07:09:47;;;;;;;5.85;4.40;;;23.80;99.90;;;;;;5030363;28;20032;-78
2023/08/17 07:12:13;;;;;;;6.05;4.40;;;23.80;99.90;;;;;;5034340;28;20060;-74
2023/08/17 07:14:39;;;;;;;6.60;4.97;;;23.80;99.90;;;;;;5012073;28;20401;-65
2023/08/17 07:17:04;;;;;;;8.77;4.95;;;23.80;99.90;;;;;;5023292;28;20025;-65
2023/08/17 07:19:30;;;;;;;6.30;4.70;;;23.90;99.90;;;;;;5025005;28;20556;-65
2023/08/17 07:21:56;;;;;;;4.60;4.15;;;23.90;99.90;;;;;;5027621;28;20036;-65
2023/08/17 07:24:21;;;;;;;6.72;4.00;;;24.00;99.90;;;;;;5024734;28;20033;-74
2023/08/17 07:26:47;;;;;;;5.43;4.38;;;23.90;99.90;;;;;;5029862;28;20530;-68
2023/08/17 07:29:12;;;;;;;4.00;3.70;;;24.00;99.90;;;;;;5026806;28;20029;-74
2023/08/17 07:31:39;;;;;;;4.30;3.88;;;23.90;99.90;;;;;;5026195;28;20055;-74
2023/08/17 07:34:05;;;;;;;5.32;4.15;;;23.90;99.90;;;;;;5033263;28;20039;-74
2023/08/17 07:36:32;;;;;;;6.07;3.72;;;24.00;99.90;;;;;;5023541;28;20524;-75
2023/08/17 07:38:58;;;;;;;27.63;4.95;;;24.00;99.90;;;;;;5029735;28;20550;-75
2023/08/17 07:41:24;;;;;;;13.18;4.38;;;23.90;99.90;;;;;;5032378;28;20072;-75
2023/08/17 07:43:50;;;;;;;16.88;3.70;;;23.90;99.90;;;;;;5027687;28;20546;-75
2023/08/17 07:46:16;;;;;;;4.78;3.53;;;23.90;99.90;;;;;;5031237;28;20627;-74
2023/08/17 07:48:41;;;;;;;6.55;3.80;;;24.00;99.90;;;;;;5016947;28;20029;-74
2023/08/17 07:51:07;;;;;;;4.00;3.70;;;24.10;99.90;;;;;;5028937;28;20041;-74
2023/08/17 07:53:33;;;;;;;4.50;4.10;;;24.20;99.90;;;;;;5012536;28;20043;-73
2023/08/17 07:55:58;;;;;;;7.70;4.10;;;24.30;99.90;;;;;;5031567;28;20072;-72
2023/08/17 07:58:24;;;;;;;4.72;3.83;;;24.40;99.90;;;;;;5028534;28;20050;-72
2023/08/17 08:00:49;;;;;;;4.75;3.60;;;24.40;99.90;;;;;;5029055;28;20041;-73
2023/08/17 08:03:15;;;;;;;5.40;3.83;;;24.60;99.90;;;;;;5007070;28;20561;-72
2023/08/17 08:05:41;;;;;;;5.20;3.75;;;24.60;99.90;;;;;;5020218;28;20025;-72
2023/08/17 08:08:07;;;;;;;14.18;4.65;;;24.70;99.90;;;;;;5029329;28;20029;-69
2023/08/17 08:10:32;;;;;;;10.68;4.38;;;24.70;99.90;;;;;;5020709;28;20021;-69
2023/08/17 08:12:58;;;;;;;4.07;3.70;;;24.80;99.90;;;;;;5025490;28;20547;-73
2023/08/17 08:15:24;;;;;;;4.35;3.50;;;24.80;99.90;;;;;;5027953;28;20045;-73
2023/08/17 08:17:49;;;;;;;3.92;3.53;;;24.90;99.90;;;;;;5015269;28;20025;-73
2023/08/17 08:20:15;;;;;;;4.40;3.75;;;25.00;99.90;;;;;;5000265;28;20125;-74
2023/08/17 08:22:41;;;;;;;5.03;4.13;;;25.00;99.90;;;;;;5028639;28;20131;-73
2023/08/17 08:25:07;;;;;;;5.18;3.35;;;25.00;99.90;;;;;;5032412;28;20063;-74
2023/08/17 08:27:32;;;;;;;4.93;3.65;;;25.10;99.90;;;;;;5033498;28;20144;-74
2023/08/17 08:29:58;;;;;;;4.38;3.97;;;25.10;99.90;;;;;;5039490;28;20517;-75
2023/08/17 08:32:23;;;;;;;4.65;3.45;;;25.10;99.90;;;;;;5041574;28;20108;-74
2023/08/17 08:34:49;;;;;;;4.63;4.22;;;25.10;99.90;;;;;;5043852;28;20036;-74
2023/08/17 08:37:15;;;;;;;5.05;4.00;;;25.10;99.90;;;;;;5027568;28;20426;-74
2023/08/17 08:39:51;;;;;;;7.15;3.92;;;25.20;99.90;;;;;;5031174;28;20033;-75
2023/08/17 08:42:18;;;;;;;4.47;4.07;;;25.30;99.90;;;;;;5045393;28;20071;-75
2023/08/17 08:44:44;;;;;;;4.20;3.90;;;25.30;99.90;;;;;;5042405;28;20025;-75
2023/08/17 08:47:11;;;;;;;4.10;3.70;;;25.30;99.90;;;;;;5027324;28;20040;-74
2023/08/17 08:49:39;;;;;;;5.28;3.92;;;25.30;99.90;;;;;;5046253;28;20026;-75
2023/08/17 08:52:07;;;;;;;3.97;3.67;;;25.30;99.90;;;;;;5042891;28;20057;-74
2023/08/17 08:54:35;;;;;;;4.15;3.75;;;25.50;99.90;;;;;;5035338;28;20037;-75
2023/08/17 08:57:09;;;;;;;5.45;3.67;;;25.60;99.90;;;;;;5039888;28;20536;-73
2023/08/17 08:59:36;;;;;;;4.50;3.90;;;25.90;99.90;;;;;;5037085;28;20056;-74
2023/08/17 09:02:03;;;;;;;3.58;3.15;;;26.00;99.90;;;;;;5045110;28;20021;-75
2023/08/17 09:04:29;;;;;;;3.90;3.47;;;26.00;99.90;;;;;;5044600;28;20033;-75
2023/08/17 09:06:56;;;;;;;6.05;3.60;;;26.10;99.90;;;;;;5037679;28;20029;-73
2023/08/17 09:09:23;;;;;;;9.77;4.15;;;26.20;99.90;;;;;;5020831;28;20127;-68
2023/08/17 09:11:48;;;;;;;3.67;3.40;;;26.30;99.90;;;;;;5006768;28;20037;-67
2023/08/17 09:14:14;;;;;;;4.30;3.90;;;26.40;99.90;;;;;;5015330;28;20029;-67
2023/08/17 09:16:39;;;;;;;4.68;3.90;;;26.60;99.90;;;;;;5022918;28;20044;-66
2023/08/17 09:19:06;;;;;;;6.90;4.07;;;26.60;99.90;;;;;;5032167;28;20088;-67
2023/08/17 09:21:33;;;;;;;5.45;4.00;;;26.60;99.90;;;;;;5029597;28;20026;-67
2023/08/17 09:23:58;;;;;;;4.05;3.60;;;26.60;99.90;;;;;;5020879;28;20035;-67
2023/08/17 09:26:24;;;;;;;5.20;3.65;;;26.60;99.90;;;;;;5037375;28;20029;-68
2023/08/17 09:28:58;;;;;;;8.55;4.03;;;26.60;99.90;;;;;;5026079;28;20063;-67
2023/08/17 09:31:24;;;;;;;6.72;3.70;;;26.50;99.90;;;;;;5030566;28;20517;-67
2023/08/17 09:33:51;;;;;;;4.03;3.65;;;26.40;99.90;;;;;;5039429;28;20033;-67
2023/08/17 09:36:22;;;;;;;4.57;3.70;;;26.40;99.90;;;;;;5026678;28;21565;-65
2023/08/17 09:38:49;;;;;;;4.13;3.47;;;26.40;99.90;;;;;;5034711;28;20128;-67
2023/08/17 09:41:15;;;;;;;4.05;3.65;;;26.40;99.90;;;;;;5039504;28;20033;-66
2023/08/17 09:43:41;;;;;;;3.72;3.42;;;26.40;99.90;;;;;;5037276;28;20025;-67
2023/08/17 09:46:07;;;;;;;9.20;3.65;;;26.50;99.90;;;;;;5015393;28;20131;-68
2023/08/17 09:48:33;;;;;;;5.63;3.65;;;26.50;99.90;;;;;;5027686;28;20064;-67
2023/08/17 09:51:01;;;;;;;4.25;3.55;;;26.50;99.90;;;;;;5012408;28;20108;-67
2023/08/17 09:53:26;;;;;;;6.53;3.60;;;26.60;99.90;;;;;;5030484;28;20460;-67
2023/08/17 09:55:55;;;;;;;5.53;3.28;;;26.60;99.90;;;;;;5028959;28;20034;-67
2023/08/17 09:58:21;;;;;;;6.97;3.33;;;26.60;99.90;;;;;;5032456;28;20052;-67
2023/08/17 10:00:50;;;;;;;3.47;3.17;;;26.60;99.90;;;;;;5034229;28;20091;-66
2023/08/17 10:03:17;;;;;;;6.03;3.13;;;26.60;99.90;;;;;;5033936;28;20029;-66
2023/08/17 10:05:47;;;;;;;4.72;3.33;;;26.70;99.90;;;;;;5014272;28;20034;-68
2023/08/17 10:08:15;;;;;;;3.90;3.05;;;26.70;99.90;;;;;;5035298;28;20379;-68
2023/08/17 10:10:44;;;;;;;3.67;3.05;;;26.70;99.90;;;;;;5030183;28;20135;-66
2023/08/17 10:13:43;;;;;;;3.83;3.35;;;26.70;99.90;;;;;;5031449;28;20027;-66
2023/08/17 10:16:26;;;;;;;3.55;2.78;;;26.80;99.90;;;;;;5035485;28;20024;-67
2023/08/17 10:18:52;;;;;;;7.00;3.92;;;26.80;99.90;;;;;;5033673;28;20033;-67
2023/08/17 10:21:41;;;;;;;4.00;2.58;;;26.90;99.90;;;;;;5033600;28;20125;-67
2023/08/17 10:24:08;;;;;;;3.03;2.72;;;26.90;99.90;;;;;;4985399;28;20037;-66
2023/08/17 10:26:33;;;;;;;13.60;4.63;;;26.80;99.90;;;;;;5024784;28;20079;-64
2023/08/17 10:29:02;;;;;;;5.25;4.50;;;26.70;99.90;;;;;;5010235;28;20029;-64
2023/08/17 10:31:29;;;;;;;4.18;3.10;;;26.80;99.90;;;;;;5022859;28;20029;-64
2023/08/17 10:33:56;;;;;;;5.13;3.65;;;26.80;99.90;;;;;;5020317;28;20028;-64
2023/08/17 10:36:22;;;;;;;4.40;3.03;;;26.80;99.90;;;;;;5025770;28;20049;-64
2023/08/17 10:39:21;;;;;;;3.53;3.17;;;26.70;99.90;;;;;;5014900;28;20240;-64
2023/08/17 10:41:48;;;;;;;2.80;2.60;;;26.70;99.90;;;;;;5030701;28;20044;-65
2023/08/17 10:44:14;;;;;;;4.20;3.22;;;26.70;99.90;;;;;;5033609;28;20063;-65
2023/08/17 10:46:40;;;;;;;3.88;2.78;;;26.70;99.90;;;;;;5031157;28;20112;-64
2023/08/17 10:49:23;;;;;;;3.55;3.15;;;26.80;99.90;;;;;;5031361;28;20029;-65
2023/08/17 10:52:07;;;;;;;4.35;2.92;;;26.80;99.90;;;;;;5027692;28;20036;-65
2023/08/17 10:57:39;;;;;;;2.38;2.17;;;27.00;99.90;;;;;;5031851;28;20094;-65
2023/08/17 11:00:10;;;;;;;2.72;2.00;;;27.10;99.90;;;;;;5039139;28;20051;-65
2023/08/17 11:02:38;;;;;;;3.63;2.13;;;27.00;99.90;;;;;;5035035;28;20021;-65
2023/08/17 11:05:07;;;;;;;2.65;2.10;;;27.00;99.90;;;;;;5023334;28;21584;-66
2023/08/17 11:07:44;;;;;;;6.32;2.28;;;27.00;99.90;;;;;;5032071;28;20327;-65
2023/08/17 11:10:29;;;;;;;2.70;1.92;;;26.90;99.90;;;;;;5035758;28;20083;-65
2023/08/17 11:12:59;;;;;;;2.80;1.90;;;26.90;99.90;;;;;;5032466;28;20037;-65
2023/08/17 11:15:48;;;;;;;2.20;2.00;;;27.00;99.90;;;;;;5025162;28;20071;-67
2023/08/17 11:18:13;;;;;;;2.17;1.98;;;27.10;99.90;;;;;;5025256;28;20055;-68
2023/08/17 11:20:41;;;;;;;2.03;1.92;;;27.20;99.90;;;;;;5016619;28;20507;-68
2023/08/17 11:23:08;;;;;;;5.20;1.88;;;27.30;99.90;;;;;;5016173;28;20040;-67
2023/08/17 11:25:34;;;;;;;2.72;2.08;;;27.30;99.90;;;;;;5025749;28;20047;-67
2023/08/17 11:28:01;;;;;;;2.38;2.08;;;27.30;99.90;;;;;;5033616;28;20031;-68
2023/08/17 11:30:27;;;;;;;4.03;2.35;;;27.30;99.90;;;;;;5024963;28;20028;-68
2023/08/17 11:32:54;;;;;;;2.05;1.85;;;27.20;99.90;;;;;;5029063;28;20036;-67
2023/08/17 11:35:21;;;;;;;2.58;2.20;;;27.20;99.90;;;;;;5032039;28;20501;-67
2023/08/17 11:37:48;;;;;;;2.22;2.03;;;27.20;99.90;;;;;;5019426;28;20594;-67
2023/08/17 11:40:14;;;;;;;3.55;2.28;;;27.30;99.90;;;;;;5040514;28;20068;-67
2023/08/17 11:42:40;;;;;;;2.47;2.10;;;27.40;99.90;;;;;;5036175;28;20060;-67
2023/08/17 11:45:09;;;;;;;2.25;2.05;;;27.40;99.90;;;;;;5032064;28;20043;-68
2023/08/17 11:47:39;;;;;;;2.70;2.08;;;27.50;99.90;;;;;;5017725;28;20025;-68
2023/08/17 11:50:06;;;;;;;2.40;1.95;;;27.60;99.90;;;;;;5034103;28;20037;-67
2023/08/17 11:52:38;;;;;;;5.20;1.80;;;27.60;99.90;;;;;;5025116;28;20033;-66
2023/08/17 11:55:05;;;;;;;;;;;27.60;99.90;;;;;;5033544;28;20049;-67
2023/08/17 11:57:34;;;;;;;3.70;2.28;;;27.90;99.90;;;;;;5041196;28;19919;-68
2023/08/17 12:00:01;;;;;;;2.30;1.77;;;28.00;99.90;;;;;;5024821;28;20037;-68
2023/08/17 12:02:27;;;;;;;2.22;2.00;;;28.10;99.90;;;;;;5035536;28;20101;-68
2023/08/17 12:04:56;;;;;;;2.80;2.58;;;28.10;99.90;;;;;;5026724;28;20040;-68
2023/08/17 12:07:23;;;;;;;3.42;2.40;;;28.10;99.90;;;;;;5019883;28;20502;-68
2023/08/17 12:09:49;;;;;;;4.88;2.72;;;28.00;99.90;;;;;;5022097;28;20470;-69
2023/08/17 12:12:37;;;;;;;8.40;2.45;;;28.00;99.90;;;;;;5025951;28;20057;-69
2023/08/17 12:15:04;;;;;;;3.00;2.67;;;27.90;99.90;;;;;;5027439;28;20026;-69
2023/08/17 12:17:30;;;;;;;4.00;2.65;;;27.80;99.90;;;;;;5027856;28;20051;-66
2023/08/17 12:19:56;;;;;;;3.22;2.92;;;27.80;99.90;;;;;;5026675;28;20033;-67
2023/08/17 12:22:24;;;;;;;4.32;3.00;;;27.70;99.90;;;;;;5013343;28;20398;-68
2023/08/17 12:24:50;;;;;;;10.75;2.85;;;27.50;99.90;;;;;;5025526;28;20098;-68
2023/08/17 12:27:16;;;;;;;5.00;3.33;;;27.20;99.90;;;;;;5030413;28;20493;-71
2023/08/17 12:29:51;;;;;;;3.38;2.92;;;27.00;99.90;;;;;;5027134;28;20060;-68
2023/08/17 12:32:19;;;;;;;3.80;2.97;;;26.90;99.90;;;;;;5028551;28;20529;-74
2023/08/17 12:34:46;;;;;;;3.95;2.72;;;26.80;99.90;;;;;;5034163;28;20041;-75
2023/08/17 12:37:12;;;;;;;3.50;3.13;;;26.80;99.90;;;;;;5035971;28;20021;-75
2023/08/17 12:39:38;;;;;;;3.78;2.88;;;26.70;99.90;;;;;;5038687;28;20105;-75
2023/08/17 12:42:05;;;;;;;3.80;2.90;;;26.60;99.90;;;;;;5022618;28;20502;-74
2023/08/17 12:44:30;;;;;;;3.97;2.63;;;26.60;99.90;;;;;;5039050;28;20630;-75
2023/08/17 12:46:56;;;;;;;5.57;2.97;;;26.50;99.90;;;;;;5031298;28;20387;-76
2023/08/17 12:49:23;;;;;;;6.47;3.35;;;26.50;99.90;;;;;;5030333;28;20481;-75
2023/08/17 12:51:49;;;;;;;3.80;3.35;;;26.50;99.90;;;;;;5025103;28;20030;-76